createdAt,value
2018-07-26T00:00:59.377Z,78.91
2018-07-26T00:02:08.931Z,79.1
2018-07-26T00:03:19.006Z,79.1
2018-07-26T00:04:28.834Z,79.1
2018-07-26T00:05:38.910Z,78.91
2018-07-26T00:06:48.732Z,79
2018-07-26T00:07:58.886Z,78.91
2018-07-26T00:09:08.976Z,78.91
2018-07-26T00:10:19.048Z,79
2018-07-26T00:11:29.145Z,78.71
2018-07-26T00:12:38.962Z,78.81
2018-07-26T00:13:48.782Z,78.91
2018-07-26T00:14:58.382Z,78.91
2018-07-26T00:16:08.475Z,78.81
2018-07-26T00:17:18.554Z,78.91
2018-07-26T00:18:28.368Z,79.19
2018-07-26T00:19:38.445Z,79
2018-07-26T00:20:48.013Z,78.91
2018-07-26T00:21:58.078Z,78.91
2018-07-26T00:23:08.149Z,78.91
2018-07-26T00:24:18.221Z,78.81
2018-07-26T00:25:28.313Z,78.61
2018-07-26T00:26:38.386Z,78.81
2018-07-26T00:27:48.448Z,78.61
2018-07-26T00:28:58.523Z,78.91
2018-07-26T00:30:08.604Z,78.91
2018-07-26T00:31:18.673Z,79
2018-07-26T00:32:28.751Z,78.91
2018-07-26T00:33:38.567Z,79.1
2018-07-26T00:34:48.644Z,78.91
2018-07-26T00:35:58.469Z,79
2018-07-26T00:37:08.572Z,78.91
2018-07-26T00:38:18.665Z,79
2018-07-26T00:39:28.744Z,79
2018-07-26T00:40:38.815Z,78.81
2018-07-26T00:41:48.629Z,78.91
2018-07-26T00:42:58.464Z,78.81
2018-07-26T00:44:08.781Z,78.91
2018-07-26T00:45:18.871Z,78.81
2018-07-26T00:46:28.965Z,78.71
2018-07-26T00:47:39.051Z,78.52
2018-07-26T00:48:49.257Z,78.71
2018-07-26T00:49:59.483Z,78.61
2018-07-26T00:51:09.548Z,79
2018-07-26T00:52:19.641Z,79.19
2018-07-26T00:53:29.712Z,79
2018-07-26T00:54:39.835Z,79
2018-07-26T00:55:49.924Z,79.1
2018-07-26T00:56:59.992Z,78.91
2018-07-26T00:58:10.062Z,78.81
2018-07-26T00:59:20.174Z,78.81
2018-07-26T01:00:30.249Z,78.71
2018-07-26T01:01:40.323Z,78.81
2018-07-26T01:02:50.408Z,78.81
2018-07-26T01:04:00.489Z,78.52
2018-07-26T01:05:10.655Z,78.91
2018-07-26T01:06:20.491Z,78.67
2018-07-26T01:07:30.588Z,78.52
2018-07-26T01:08:40.644Z,78.61
2018-07-26T01:09:50.704Z,78.61
2018-07-26T01:11:00.524Z,78.52
2018-07-26T01:12:10.598Z,79.39
2018-07-26T01:13:20.666Z,78.61
2018-07-26T01:14:30.729Z,78.71
2018-07-26T01:15:40.804Z,78.81
2018-07-26T01:16:50.890Z,78.81
2018-07-26T01:18:00.964Z,79.35
2018-07-26T01:19:10.780Z,78.42
2018-07-26T01:20:20.605Z,78.77
2018-07-26T01:21:30.684Z,79.44
2018-07-26T01:22:40.498Z,79.35
2018-07-26T01:23:50.577Z,79.44
2018-07-26T01:25:00.655Z,79.35
2018-07-26T01:26:10.473Z,79.35
2018-07-26T01:27:20.276Z,79.64
2018-07-26T01:28:30.094Z,79.35
2018-07-26T01:29:40.142Z,79.64
2018-07-26T01:30:49.972Z,79.25
2018-07-26T01:32:00.052Z,79.25
2018-07-26T01:33:10.174Z,79.44
2018-07-26T01:34:20.235Z,79.35
2018-07-26T01:35:30.067Z,79.35
2018-07-26T01:36:39.893Z,78.77
2018-07-26T01:37:49.964Z,78.48
2018-07-26T01:39:00.068Z,78.58
2018-07-26T01:40:10.130Z,78.77
2018-07-26T01:41:20.198Z,78.77
2018-07-26T01:42:30.262Z,78.77
2018-07-26T01:43:39.805Z,78.61
2018-07-26T01:44:49.875Z,78.81
2018-07-26T01:45:59.975Z,78.38
2018-07-26T01:47:10.060Z,79.54
2018-07-26T01:48:20.120Z,79.44
2018-07-26T01:49:30.197Z,79.44
2018-07-26T01:50:40.017Z,79.25
2018-07-26T01:51:50.150Z,79.25
2018-07-26T01:53:00.229Z,79.25
2018-07-26T01:54:09.790Z,79.64
2018-07-26T01:55:19.600Z,79.44
2018-07-26T01:56:29.679Z,79.25
2018-07-26T01:57:39.510Z,79.25
2018-07-26T01:58:49.593Z,79.25
2018-07-26T01:59:59.666Z,79.44
2018-07-26T02:01:09.740Z,78.29
2018-07-26T02:02:19.813Z,79.54
2018-07-26T02:03:29.671Z,78.58
2018-07-26T02:04:39.754Z,78.67
2018-07-26T02:05:49.877Z,78.38
2018-07-26T02:06:59.961Z,78.38
2018-07-26T02:08:10.032Z,78.58
2018-07-26T02:09:19.885Z,78.77
2018-07-26T02:10:29.714Z,79.54
2018-07-26T02:11:39.810Z,78.48
2018-07-26T02:12:49.635Z,78.38
2018-07-26T02:13:59.451Z,78.77
2018-07-26T02:15:09.521Z,78.86
2018-07-26T02:16:19.126Z,78.77
2018-07-26T02:17:29.201Z,78.86
2018-07-26T02:18:39.277Z,78.67
2018-07-26T02:19:49.097Z,78.58
2018-07-26T02:20:59.171Z,78.58
2018-07-26T02:22:09.271Z,78.77
2018-07-26T02:23:18.825Z,79.54
2018-07-26T02:24:28.904Z,79.35
2018-07-26T02:25:38.979Z,79.35
2018-07-26T02:26:49.051Z,79.25
2018-07-26T02:27:59.142Z,78.86
2018-07-26T02:29:09.214Z,78.38
2018-07-26T02:30:19.289Z,78.96
2018-07-26T02:31:29.367Z,79.35
2018-07-26T02:32:39.453Z,78.67
2018-07-26T02:33:49.535Z,78.67
2018-07-26T02:34:59.609Z,78.58
2018-07-26T02:36:09.440Z,78.77
2018-07-26T02:37:19.258Z,79.44
2018-07-26T02:38:29.167Z,79.54
2018-07-26T02:39:39.232Z,78.38
2018-07-26T02:40:49.312Z,79.35
2018-07-26T02:41:59.383Z,78.96
2018-07-26T02:43:09.463Z,78.48
2018-07-26T02:44:19.600Z,78.58
2018-07-26T02:45:29.680Z,78.77
2018-07-26T02:46:39.777Z,78.58
2018-07-26T02:47:49.611Z,78.67
2018-07-26T02:48:59.706Z,78.67
2018-07-26T02:50:09.773Z,78.77
2018-07-26T02:51:19.890Z,78.38
2018-07-26T02:52:30.003Z,78.67
2018-07-26T02:53:40.071Z,78.67
2018-07-26T02:54:49.880Z,79.06
2018-07-26T02:55:59.966Z,78.58
2018-07-26T02:57:09.853Z,78.86
2018-07-26T02:58:19.716Z,78.86
2018-07-26T02:59:29.784Z,78.67
2018-07-26T03:00:39.869Z,78.77
2018-07-26T03:01:49.966Z,78.67
2018-07-26T03:03:00.055Z,78.67
2018-07-26T03:35:15.326Z,73.74
2018-07-26T03:36:25.401Z,73.36
2018-07-26T03:37:35.477Z,73.74
2018-07-26T03:38:45.530Z,74.9
2018-07-26T03:39:55.351Z,75.48
2018-07-26T03:41:05.476Z,75.86
2018-07-26T03:42:16.645Z,76.53
2018-07-26T03:43:29.135Z,76.73
2018-07-26T03:44:39.470Z,76.76
2018-07-26T03:45:49.543Z,77.53
2018-07-26T03:46:59.341Z,77.58
2018-07-26T03:48:09.427Z,77.38
2018-07-26T03:49:19.504Z,77.76
2018-07-26T03:50:29.334Z,77.58
2018-07-26T03:51:39.400Z,77.58
2018-07-26T03:52:49.671Z,77.61
2018-07-26T03:53:59.409Z,77.9
2018-07-26T03:55:09.230Z,78
2018-07-26T03:56:19.320Z,77.75
2018-07-26T03:57:29.431Z,77.94
2018-07-26T03:58:39.242Z,77.65
2018-07-26T03:59:49.057Z,77.84
2018-07-26T04:00:59.129Z,77.59
2018-07-26T04:02:09.200Z,77.88
2018-07-26T04:03:19.323Z,77.88
2018-07-26T04:04:29.287Z,77.69
2018-07-26T04:05:39.096Z,78.17
2018-07-26T04:06:49.152Z,77.78
2018-07-26T04:07:58.967Z,78.02
2018-07-26T04:09:09.042Z,77.63
2018-07-26T04:10:19.184Z,77.83
2018-07-26T04:11:29.270Z,77.92
2018-07-26T04:12:39.122Z,78.02
2018-07-26T04:13:49.238Z,78.02
2018-07-26T04:14:59.087Z,77.63
2018-07-26T04:16:09.169Z,77.83
2018-07-26T04:17:19.248Z,77.67
2018-07-26T04:18:29.320Z,77.76
2018-07-26T04:19:39.435Z,77.57
2018-07-26T04:20:49.510Z,77.76
2018-07-26T04:21:59.315Z,77.38
2018-07-26T04:23:08.861Z,77.42
2018-07-26T04:24:18.943Z,76.93
2018-07-26T04:25:29.005Z,77.22
2018-07-26T04:26:39.108Z,76.29
2018-07-26T04:27:49.197Z,74.69
2018-07-26T04:28:59.270Z,73.5
2018-07-26T04:30:09.111Z,73.73
2018-07-26T04:31:18.920Z,74.41
2018-07-26T04:32:28.743Z,74.8
2018-07-26T04:33:38.825Z,75.28
2018-07-26T04:34:48.903Z,75.38
2018-07-26T04:35:58.970Z,75.96
2018-07-26T04:37:09.066Z,76.21
2018-07-26T04:38:19.144Z,76.99
2018-07-26T04:39:28.964Z,77.24
2018-07-26T04:40:39.048Z,76.95
2018-07-26T04:41:49.123Z,77.53
2018-07-26T04:42:59.092Z,77.78
2018-07-26T04:44:09.109Z,77.69
2018-07-26T04:45:19.237Z,78.08
2018-07-26T04:46:29.303Z,78.08
2018-07-26T04:47:39.171Z,77.75
2018-07-26T04:48:49.349Z,78.03
2018-07-26T04:49:59.592Z,77.94
2018-07-26T04:51:09.673Z,77.65
2018-07-26T04:52:19.496Z,77.4
2018-07-26T04:53:29.393Z,77.2
2018-07-26T04:54:39.628Z,76.46
2018-07-26T04:55:50.224Z,75.73
2018-07-26T04:57:00.052Z,74.22
2018-07-26T04:58:09.870Z,72.97
2018-07-26T04:59:19.944Z,70.94
2018-07-26T05:00:29.757Z,69.97
2018-07-26T05:01:39.851Z,69.1
2018-07-26T05:02:49.983Z,68.59
2018-07-26T05:03:59.805Z,68.62
2018-07-26T05:05:09.902Z,68.49
2018-07-26T05:06:19.984Z,68.71
2018-07-26T05:07:30.059Z,68.46
2018-07-26T05:08:40.134Z,68.46
2018-07-26T05:09:50.236Z,68.1
2018-07-26T05:11:00.051Z,68.13
2018-07-26T05:12:10.134Z,68.23
2018-07-26T05:13:20.220Z,68.16
2018-07-26T05:14:30.108Z,68.49
2018-07-26T05:15:39.926Z,68.59
2018-07-26T05:16:50.022Z,68.59
2018-07-26T05:18:00.101Z,68.69
2018-07-26T05:19:10.122Z,68.79
2018-07-26T05:20:20.465Z,68.88
2018-07-26T05:21:30.534Z,68.79
2018-07-26T05:22:40.617Z,68.72
2018-07-26T05:23:50.437Z,68.72
2018-07-26T05:25:00.523Z,68.72
2018-07-26T05:26:10.326Z,68.82
2018-07-26T05:27:20.401Z,68.72
2018-07-26T05:28:30.499Z,68.62
2018-07-26T05:29:40.581Z,68.85
2018-07-26T05:30:50.383Z,68.85
2018-07-26T05:32:00.496Z,68.85
2018-07-26T05:33:10.580Z,68.95
2018-07-26T05:34:20.666Z,68.76
2018-07-26T05:35:30.477Z,69.15
2018-07-26T05:36:40.561Z,69.05
2018-07-26T05:37:50.707Z,68.56
2018-07-26T05:39:00.965Z,68.72
2018-07-26T05:40:10.804Z,68.72
2018-07-26T05:41:20.898Z,68.91
2018-07-26T05:42:30.973Z,68.43
2018-07-26T05:43:41.121Z,69.12
2018-07-26T05:44:51.211Z,68.33
2018-07-26T05:46:01.289Z,69.02
2018-07-26T05:47:11.403Z,68.79
2018-07-26T05:48:21.482Z,69.41
2018-07-26T05:49:31.038Z,69.41
2018-07-26T05:50:41.130Z,69.7
2018-07-26T05:51:51.333Z,69.41
2018-07-26T05:53:01.484Z,69.21
2018-07-26T05:54:11.312Z,69.21
2018-07-26T05:55:21.403Z,69.21
2018-07-26T05:56:31.209Z,69.21
2018-07-26T05:57:41.290Z,69.51
2018-07-26T05:58:51.382Z,69.41
2018-07-26T06:00:01.222Z,70.29
2018-07-26T06:01:11.314Z,70.36
2018-07-26T06:02:21.404Z,70.26
2018-07-26T06:03:31.222Z,70.06
2018-07-26T06:04:41.356Z,70.32
2018-07-26T06:05:51.439Z,70.61
2018-07-26T06:07:01.529Z,71.66
2018-07-26T06:08:11.609Z,72.47
2018-07-26T06:09:21.680Z,73.76
2018-07-26T06:10:31.771Z,73.89
2018-07-26T06:11:41.852Z,73.95
2018-07-26T06:12:51.949Z,74.63
2018-07-26T06:14:01.757Z,73.43
2018-07-26T06:15:11.577Z,73.4
2018-07-26T06:16:21.722Z,74.05
2018-07-26T06:17:31.843Z,74.69
2018-07-26T06:18:41.922Z,74.85
2018-07-26T06:19:52.031Z,74.52
2018-07-26T06:21:02.121Z,74.97
2018-07-26T06:22:11.668Z,75.07
2018-07-26T06:23:21.773Z,75.75
2018-07-26T06:24:31.588Z,75.52
2018-07-26T06:25:41.658Z,75.62
2018-07-26T06:26:51.738Z,75.58
2018-07-26T06:28:01.773Z,75.58
2018-07-26T06:29:12.278Z,75.45
2018-07-26T06:30:22.096Z,75.45
2018-07-26T06:31:31.919Z,75.45
2018-07-26T06:32:41.742Z,75.05
2018-07-26T06:33:51.917Z,75.05
2018-07-26T06:35:02.000Z,74.32
2018-07-26T06:36:12.092Z,74.61
2018-07-26T06:37:21.917Z,74.02
2018-07-26T06:38:31.741Z,74.74
2018-07-26T06:39:41.865Z,74
2018-07-26T06:40:51.945Z,73.9
2018-07-26T06:42:02.017Z,73.51
2018-07-26T06:43:12.090Z,73.55
2018-07-26T06:44:21.927Z,73.35
2018-07-26T06:45:32.012Z,73.65
2018-07-26T06:46:42.117Z,73.16
2018-07-26T06:47:52.206Z,73.06
2018-07-26T06:49:02.288Z,73.45
2018-07-26T06:50:12.382Z,73.39
2018-07-26T06:51:22.189Z,73.29
2018-07-26T06:52:32.273Z,73.1
2018-07-26T06:53:42.564Z,73.68
2018-07-26T06:54:52.640Z,73.65
2018-07-26T06:56:02.701Z,73.29
2018-07-26T06:57:12.798Z,73.1
2018-07-26T06:58:22.868Z,72.55
2018-07-26T06:59:32.947Z,72.64
2018-07-26T07:00:43.084Z,72.68
2018-07-26T07:01:53.033Z,73.07
2018-07-26T07:03:02.862Z,72.97
2018-07-26T07:04:12.929Z,73.27
2018-07-26T07:05:22.747Z,73.43
2018-07-26T07:06:32.834Z,73.33
2018-07-26T07:07:42.973Z,73.43
2018-07-26T07:08:53.038Z,73.49
2018-07-26T07:10:03.219Z,73.62
2018-07-26T07:11:13.260Z,73.88
2018-07-26T07:12:23.358Z,74.37
2018-07-26T07:13:33.227Z,74.17
2018-07-26T07:14:43.039Z,74.46
2018-07-26T07:15:53.107Z,74.37
2018-07-26T07:17:03.198Z,74.07
2018-07-26T07:18:13.280Z,74.82
2018-07-26T07:19:23.366Z,74.23
2018-07-26T07:20:33.311Z,74.62
2018-07-26T07:21:43.165Z,74.62
2018-07-26T07:22:53.252Z,74.49
2018-07-26T07:24:02.809Z,74.78
2018-07-26T07:25:12.956Z,74.78
2018-07-26T07:26:22.518Z,74.97
2018-07-26T07:27:32.337Z,74.91
2018-07-26T07:28:41.896Z,74.39
2018-07-26T07:29:51.802Z,74.49
2018-07-26T07:31:02.001Z,75.26
2018-07-26T07:32:12.101Z,75.26
2018-07-26T07:33:22.309Z,75.62
2018-07-26T07:34:31.940Z,75.42
2018-07-26T07:35:42.125Z,75.52
2018-07-26T07:36:52.315Z,75.52
2018-07-26T07:38:02.424Z,75.42
2018-07-26T07:39:11.968Z,75.52
2018-07-26T07:40:21.780Z,75.71
2018-07-26T07:41:31.634Z,75.52
2018-07-26T07:42:41.790Z,75.23
2018-07-26T07:43:51.899Z,75.42
2018-07-26T07:45:01.721Z,75.32
2018-07-26T07:46:11.862Z,75.32
2018-07-26T07:47:21.893Z,74.84
2018-07-26T07:48:31.957Z,75.07
2018-07-26T07:49:41.785Z,75.16
2018-07-26T07:50:51.874Z,75.56
2018-07-26T07:52:01.982Z,75.65
2018-07-26T07:53:12.075Z,75.26
2018-07-26T07:54:22.176Z,75.65
2018-07-26T07:55:32.257Z,75.16
2018-07-26T07:56:42.347Z,74.97
2018-07-26T07:57:52.457Z,75.56
2018-07-26T07:59:02.596Z,75.59
2018-07-26T08:00:12.694Z,75.07
2018-07-26T08:01:22.781Z,75.1
2018-07-26T08:02:32.589Z,74.87
2018-07-26T08:03:42.671Z,75.1
2018-07-26T08:04:52.550Z,75.2
2018-07-26T08:06:02.632Z,75.1
2018-07-26T08:07:12.728Z,75.59
2018-07-26T08:08:22.316Z,75.2
2018-07-26T08:09:32.150Z,75.69
2018-07-26T08:10:42.233Z,75.1
2018-07-26T08:11:52.296Z,75.3
2018-07-26T08:13:02.121Z,75.1
2018-07-26T08:14:11.670Z,75.3
2018-07-26T08:15:21.763Z,74.95
2018-07-26T08:16:31.632Z,75.04
2018-07-26T08:17:41.709Z,75.04
2018-07-26T08:18:51.788Z,75.34
2018-07-26T08:20:01.881Z,74.85
2018-07-26T08:21:12.188Z,74.46
2018-07-26T08:22:22.386Z,74.6
2018-07-26T08:23:32.479Z,74.5
2018-07-26T08:24:42.571Z,74.69
2018-07-26T08:25:52.386Z,74.73
2018-07-26T08:27:02.465Z,74.73
2018-07-26T08:28:12.020Z,75.02
2018-07-26T08:29:22.177Z,74.93
2018-07-26T08:30:32.278Z,75.02
2018-07-26T08:31:42.114Z,74.83
2018-07-26T08:32:52.199Z,74.93
2018-07-26T08:34:02.325Z,75.05
2018-07-26T08:35:12.584Z,74.87
2018-07-26T08:36:22.905Z,74.87
2018-07-26T08:37:32.984Z,74.8
2018-07-26T08:38:43.075Z,74.12
2018-07-26T08:39:53.227Z,74.32
2018-07-26T08:41:02.851Z,74.32
2018-07-26T08:42:12.505Z,74.51
2018-07-26T08:43:22.327Z,74.51
2018-07-26T08:44:32.407Z,74.54
2018-07-26T08:45:42.225Z,74.61
2018-07-26T08:46:52.316Z,75.04
2018-07-26T08:48:02.142Z,75.04
2018-07-26T08:49:12.377Z,74.25
2018-07-26T08:50:22.433Z,74.38
2018-07-26T08:51:32.517Z,74.58
2018-07-26T08:52:42.605Z,74.38
2018-07-26T08:53:52.424Z,73.99
2018-07-26T08:55:02.240Z,73.93
2018-07-26T08:56:12.370Z,74.22
2018-07-26T08:57:22.466Z,73.44
2018-07-26T08:58:32.565Z,73.87
2018-07-26T08:59:42.459Z,74.16
2018-07-26T09:00:52.566Z,73.32
2018-07-26T09:02:02.472Z,73.52
2018-07-26T09:03:13.541Z,73.26
2018-07-26T09:04:25.081Z,73.26
2018-07-26T09:05:38.236Z,73.26
2018-07-26T09:06:53.529Z,73.79
2018-07-26T09:08:05.055Z,73.29
2018-07-26T09:09:15.241Z,73.49
2018-07-26T09:10:25.392Z,73.1
2018-07-26T09:11:35.646Z,73.23
2018-07-26T09:12:45.889Z,72.94
2018-07-26T09:13:56.075Z,72.19
2018-07-26T09:15:06.163Z,72.52
2018-07-26T09:16:16.256Z,72.45
2018-07-26T09:17:26.082Z,71.96
2018-07-26T09:18:36.176Z,71.8
2018-07-26T09:19:46.343Z,71.61
2018-07-26T09:20:56.513Z,72.03
2018-07-26T09:22:06.615Z,71.74
2018-07-26T09:23:16.697Z,71.67
2018-07-26T09:24:26.889Z,71.48
2018-07-26T09:25:37.253Z,71.81
2018-07-26T09:26:47.350Z,70.92
2018-07-26T09:27:57.440Z,70.73
2018-07-26T09:29:07.514Z,70.96
2018-07-26T09:30:17.588Z,71.35
2018-07-26T09:31:27.738Z,71.65
2018-07-26T09:32:37.570Z,71.65
2018-07-26T09:33:47.396Z,71.71
2018-07-26T09:34:57.478Z,72.69
2018-07-26T09:36:07.564Z,73.15
2018-07-26T09:37:17.391Z,73.5
2018-07-26T09:38:27.495Z,72.82
2018-07-26T09:39:37.302Z,72.36
2018-07-26T09:40:46.865Z,72.27
2018-07-26T09:41:56.961Z,71.61
2018-07-26T09:43:07.065Z,71.94
2018-07-26T09:44:16.876Z,71.94
2018-07-26T09:45:26.938Z,71.84
2018-07-26T09:46:36.771Z,71.78
2018-07-26T09:47:46.601Z,71.68
2018-07-26T09:48:56.679Z,71.78
2018-07-26T09:50:06.765Z,71.65
2018-07-26T09:51:16.841Z,72.08
2018-07-26T09:52:26.949Z,71.75
2018-07-26T09:53:37.065Z,71.75
2018-07-26T09:54:46.892Z,72.17
2018-07-26T09:55:57.040Z,71.94
2018-07-26T09:57:07.140Z,71.78
2018-07-26T09:58:17.049Z,72.53
2018-07-26T09:59:27.131Z,72.3
2018-07-26T10:00:36.946Z,72.33
2018-07-26T10:01:46.782Z,72.3
2018-07-26T10:02:56.869Z,72.63
2018-07-26T10:04:07.192Z,72.33
2018-07-26T10:05:17.280Z,72.24
2018-07-26T10:06:27.492Z,71.75
2018-07-26T10:07:37.598Z,71.88
2018-07-26T10:08:47.678Z,71.68
2018-07-26T10:09:57.776Z,71.78
2018-07-26T10:11:07.618Z,71.88
2018-07-26T10:12:17.684Z,71.88
2018-07-26T10:13:27.566Z,72.01
2018-07-26T10:14:37.654Z,71.72
2018-07-26T10:15:47.554Z,71.72
2018-07-26T10:16:57.966Z,72.01
2018-07-26T10:18:07.842Z,71.81
2018-07-26T10:19:17.412Z,71.98
2018-07-26T10:20:27.485Z,72.17
2018-07-26T10:21:37.579Z,72.5
2018-07-26T10:22:47.674Z,72.77
2018-07-26T10:23:57.749Z,72.56
2018-07-26T10:25:07.820Z,72.37
2018-07-26T10:26:17.899Z,72.33
2018-07-26T10:27:27.999Z,72.08
2018-07-26T10:28:37.877Z,72.27
2018-07-26T10:29:47.447Z,72.27
2018-07-26T10:30:57.285Z,72.17
2018-07-26T10:32:07.109Z,73.35
2018-07-26T10:33:17.198Z,73.02
2018-07-26T10:34:27.283Z,73.38
2018-07-26T10:35:37.384Z,73.48
2018-07-26T10:36:47.466Z,73.54
2018-07-26T10:37:57.336Z,73.94
2018-07-26T10:39:07.446Z,73.61
2018-07-26T10:40:17.553Z,74.1
2018-07-26T10:41:27.666Z,74.55
2018-07-26T10:42:37.794Z,74.75
2018-07-26T10:43:47.614Z,74.42
2018-07-26T10:44:57.705Z,74.62
2018-07-26T10:46:07.517Z,74.32
2018-07-26T10:47:17.620Z,74.42
2018-07-26T10:48:27.710Z,74.29
2018-07-26T10:49:37.821Z,74.77
2018-07-26T10:50:47.917Z,74.58
2018-07-26T10:51:58.033Z,73.89
2018-07-26T10:53:07.612Z,73.73
2018-07-26T10:54:17.751Z,73.18
2018-07-26T10:55:27.576Z,73.11
2018-07-26T10:56:37.664Z,73.11
2018-07-26T10:57:46.965Z,73.05
2018-07-26T10:58:56.785Z,72.92
2018-07-26T11:00:06.403Z,73.15
2018-07-26T11:01:16.011Z,72.69
2018-07-26T11:02:25.637Z,72.53
2018-07-26T11:03:35.721Z,71.48
2018-07-26T11:04:45.762Z,72.37
2018-07-26T11:05:55.603Z,73.42
2018-07-26T11:07:05.710Z,73.25
2018-07-26T11:08:15.812Z,73.48
2018-07-26T11:09:25.888Z,73.58
2018-07-26T11:10:36.120Z,73.38
2018-07-26T11:11:46.221Z,73.28
2018-07-26T11:12:56.303Z,72.92
2018-07-26T11:14:06.395Z,72.77
2018-07-26T11:15:16.208Z,72.17
2018-07-26T11:16:26.499Z,71.91
2018-07-26T11:17:36.238Z,72.05
2018-07-26T11:18:46.364Z,72.34
2018-07-26T11:19:56.236Z,72.74
2018-07-26T11:21:06.328Z,73.43
2018-07-26T11:22:16.422Z,73.25
2018-07-26T11:23:26.301Z,73.55
2018-07-26T11:24:36.372Z,73.55
2018-07-26T11:25:46.642Z,73.1
2018-07-26T11:26:56.711Z,72.64
2018-07-26T11:28:06.874Z,72.83
2018-07-26T11:29:17.010Z,72.28
2018-07-26T11:30:27.097Z,72.47
2018-07-26T11:31:37.171Z,72.87
2018-07-26T11:32:47.263Z,72.47
2018-07-26T11:33:57.372Z,72.67
2018-07-26T11:35:07.231Z,73.66
2018-07-26T11:36:17.341Z,74.28
2018-07-26T11:37:27.172Z,74.34
2018-07-26T11:38:37.271Z,74.54
2018-07-26T11:39:47.351Z,73.55
2018-07-26T11:40:57.439Z,73.13
2018-07-26T11:42:07.600Z,73.03
2018-07-26T11:43:17.461Z,73.23
2018-07-26T11:44:27.547Z,73.19
2018-07-26T11:45:37.381Z,74.38
2018-07-26T11:46:47.519Z,74.73
2018-07-26T11:47:57.612Z,74.6
2018-07-26T11:49:07.683Z,74.44
2018-07-26T11:50:17.754Z,74.34
2018-07-26T11:51:27.833Z,73.85
2018-07-26T11:52:37.998Z,74.24
2018-07-26T11:53:47.740Z,73.16
2018-07-26T11:54:57.830Z,73.59
2018-07-26T11:56:07.641Z,73.23
2018-07-26T11:57:17.475Z,72.34
2018-07-26T11:58:27.589Z,72.77
2018-07-26T11:59:37.666Z,72.11
2018-07-26T12:00:47.500Z,72.22
2018-07-26T12:01:57.395Z,72.31
2018-07-26T12:03:07.598Z,72.22
2018-07-26T12:04:17.687Z,72.05
2018-07-26T12:05:27.769Z,72.05
2018-07-26T12:06:37.607Z,72.84
2018-07-26T12:07:47.457Z,72.55
2018-07-26T12:08:57.544Z,73
2018-07-26T12:10:07.649Z,73.3
2018-07-26T12:11:17.476Z,72.91
2018-07-26T12:12:27.322Z,73.2
2018-07-26T12:13:37.424Z,73.6
2018-07-26T12:14:47.266Z,73.3
2018-07-26T12:15:57.094Z,73.5
2018-07-26T12:17:07.163Z,73.6
2018-07-26T12:18:17.003Z,73.75
2018-07-26T12:19:27.085Z,73.86
2018-07-26T12:20:37.263Z,74.41
2018-07-26T12:21:47.347Z,74.57
2018-07-26T12:22:57.208Z,74.15
2018-07-26T12:24:07.206Z,73.52
2018-07-26T12:25:17.320Z,73.23
2018-07-26T12:26:26.882Z,73.07
2018-07-26T12:27:36.989Z,72.87
2018-07-26T12:28:46.809Z,73.3
2018-07-26T12:29:56.893Z,73.6
2018-07-26T12:31:06.734Z,73.75
2018-07-26T12:32:16.866Z,73.07
2018-07-26T12:33:26.697Z,73.92
2018-07-26T12:34:36.854Z,74.02
2018-07-26T12:35:47.044Z,74.11
2018-07-26T12:36:57.450Z,74.11
2018-07-26T12:38:06.789Z,73.92
2018-07-26T12:39:16.882Z,73.98
2018-07-26T12:40:26.976Z,73.72
2018-07-26T12:41:37.071Z,74.11
2018-07-26T12:42:46.892Z,74.18
2018-07-26T12:43:56.714Z,74.11
2018-07-26T12:45:06.816Z,74.02
2018-07-26T12:46:16.647Z,73.92
2018-07-26T12:47:27.029Z,73.98
2018-07-26T12:48:37.491Z,73.43
2018-07-26T12:49:47.583Z,73.36
2018-07-26T12:50:57.430Z,72.71
2018-07-26T12:52:07.517Z,72.34
2018-07-26T12:53:17.685Z,72.28
2018-07-26T12:54:27.796Z,71.53
2018-07-26T12:55:38.012Z,72.06
2018-07-26T12:56:48.070Z,71.96
2018-07-26T12:57:58.160Z,72.45
2018-07-26T12:59:08.248Z,71.62
2018-07-26T13:00:18.090Z,71.3
2018-07-26T13:01:28.250Z,70.64
2018-07-26T13:02:38.698Z,70.78
2018-07-26T13:03:48.788Z,71.27
2018-07-26T13:04:58.889Z,71.34
2018-07-26T13:06:09.004Z,72.06
2018-07-26T13:07:19.303Z,72.52
2018-07-26T13:08:29.397Z,72.09
2018-07-26T13:09:39.229Z,72.29
2018-07-26T13:10:48.805Z,72.52
2018-07-26T13:11:58.616Z,72.82
2018-07-26T13:13:07.980Z,73.44
2018-07-26T13:14:18.066Z,73.5
2018-07-26T13:15:28.169Z,74.26
2018-07-26T13:16:38.273Z,75.27
2018-07-26T13:17:48.404Z,75.7
2018-07-26T13:18:58.503Z,75.85
2018-07-26T13:20:08.594Z,76.21
2018-07-26T13:21:18.432Z,76.27
2018-07-26T13:22:28.533Z,76.23
2018-07-26T13:23:38.640Z,76.5
2018-07-26T13:24:48.733Z,77.08
2018-07-26T13:25:58.875Z,76.85
2018-07-26T13:27:08.717Z,76.81
2018-07-26T13:28:18.761Z,76.06
2018-07-26T13:29:28.903Z,76.12
2018-07-26T13:30:38.805Z,76.52
2018-07-26T13:31:48.630Z,76.87
2018-07-26T13:32:58.723Z,77.07
2018-07-26T13:34:08.826Z,77.03
2018-07-26T13:35:19.047Z,76.15
2018-07-26T13:36:29.201Z,75.89
2018-07-26T13:37:39.041Z,75.93
2018-07-26T13:38:49.139Z,75.14
2018-07-26T13:39:59.059Z,74.65
2018-07-26T13:41:09.634Z,74.39
2018-07-26T13:42:19.783Z,74.73
2018-07-26T13:43:29.886Z,74.37
2018-07-26T13:44:39.979Z,74.07
2018-07-26T13:45:50.066Z,73.68
2018-07-26T13:46:59.901Z,74.01
2018-07-26T13:48:09.733Z,74.34
2018-07-26T13:49:19.822Z,73.16
2018-07-26T13:50:29.917Z,73.79
2018-07-26T13:51:40.027Z,73.13
2018-07-26T13:52:50.119Z,72.67
2018-07-26T13:54:00.257Z,72.58
2018-07-26T13:55:10.395Z,72.71
2018-07-26T13:56:20.489Z,72.61
2018-07-26T13:57:30.566Z,72.34
2018-07-26T13:58:40.414Z,71.95
2018-07-26T13:59:50.569Z,72.58
2018-07-26T14:01:00.387Z,73.33
2018-07-26T14:02:10.246Z,73.99
2018-07-26T14:03:20.344Z,74.55
2018-07-26T14:04:30.450Z,74.51
2018-07-26T14:05:40.531Z,74.61
2018-07-26T14:06:50.633Z,74.67
2018-07-26T14:08:00.751Z,74.48
2018-07-26T14:09:10.841Z,74.18
2018-07-26T14:10:20.948Z,73.72
2018-07-26T14:11:31.299Z,72.83
2018-07-26T14:12:41.041Z,72.41
2018-07-26T14:13:51.157Z,72.61
2018-07-26T14:15:00.969Z,71.86
2018-07-26T14:16:11.011Z,72.09
2018-07-26T14:17:21.122Z,72.97
2018-07-26T14:18:31.210Z,73.43
2018-07-26T14:19:41.093Z,73.6
2018-07-26T14:20:50.988Z,74.05
2018-07-26T14:22:01.315Z,74.21
2018-07-26T14:23:11.156Z,74.57
2018-07-26T14:24:21.529Z,74.67
2018-07-26T14:25:31.631Z,75.07
2018-07-26T14:26:41.726Z,75.32
2018-07-26T14:27:51.935Z,75.68
2018-07-26T14:29:01.878Z,76.43
2018-07-26T14:30:11.732Z,76.16
2018-07-26T14:31:21.834Z,77.01
2018-07-26T14:32:31.949Z,77.62
2018-07-26T14:33:42.097Z,77.68
2018-07-26T14:34:52.239Z,77.25
2018-07-26T14:36:02.343Z,77.41
2018-07-26T14:37:12.170Z,77.37
2018-07-26T14:38:22.465Z,77.57
2018-07-26T14:39:32.644Z,77.17
2018-07-26T14:40:42.787Z,76.88
2018-07-26T14:41:52.885Z,76.98
2018-07-26T14:43:02.982Z,76.94
2018-07-26T14:44:12.559Z,76.94
2018-07-26T14:45:22.664Z,76.75
2018-07-26T14:46:32.500Z,76.84
2018-07-26T14:47:42.618Z,76.75
2018-07-26T14:48:52.712Z,76.9
2018-07-26T14:50:02.858Z,76.81
2018-07-26T14:51:12.949Z,77
2018-07-26T14:52:22.862Z,76.77
2018-07-26T14:53:32.967Z,76.77
2018-07-26T14:54:43.059Z,76.97
2018-07-26T14:55:52.907Z,76.73
2018-07-26T14:57:02.740Z,76.93
2018-07-26T14:58:12.580Z,76.73
2018-07-26T14:59:22.657Z,76.64
2018-07-26T15:00:32.579Z,76.73
2018-07-26T15:01:42.925Z,76.44
2018-07-26T15:02:53.014Z,76.64
2018-07-26T15:04:02.993Z,76.15
2018-07-26T15:05:13.421Z,75.56
2018-07-26T15:06:23.729Z,75.76
2018-07-26T15:07:33.853Z,76.15
2018-07-26T15:08:43.956Z,75.56
2018-07-26T15:09:53.995Z,75.7
2018-07-26T15:11:04.191Z,75.4
2018-07-26T15:12:14.020Z,74.71
2018-07-26T15:13:24.147Z,74.95
2018-07-26T15:14:34.248Z,75.15
2018-07-26T15:15:44.334Z,74.36
2018-07-26T15:16:54.407Z,74.79
2018-07-26T15:18:04.245Z,74.98
2018-07-26T15:19:13.809Z,74.4
2018-07-26T15:20:23.967Z,74.53
2018-07-26T15:21:33.943Z,73.98
2018-07-26T15:22:44.031Z,73.92
2018-07-26T15:23:54.122Z,73.07
2018-07-26T15:25:04.209Z,73.3
2018-07-26T15:26:14.169Z,73.34
2018-07-26T15:27:24.717Z,73.24
2018-07-26T15:28:34.791Z,73.34
2018-07-26T15:29:44.635Z,73.34
2018-07-26T15:30:54.738Z,72.85
2018-07-26T15:32:04.837Z,72.78
2018-07-26T15:33:14.980Z,72.23
2018-07-26T15:34:25.075Z,72.66
2018-07-26T15:35:34.910Z,72.66
2018-07-26T15:36:44.471Z,72.69